createdAt,value
2023-01-12T00:02:20.236Z,48.40
2023-01-12T00:04:48.246Z,90.60
2023-01-12T00:07:17.833Z,38.40
2023-01-12T00:09:45.790Z,49.80
2023-01-12T00:12:13.840Z,27.40
2023-01-12T00:14:42.023Z,51.60
2023-01-12T00:17:12.104Z,28.30
2023-01-12T00:19:40.550Z,42.40
2023-01-12T00:22:11.843Z,32.30
2023-01-12T00:24:43.976Z,61.60
2023-01-12T00:27:22.019Z,52.80
2023-01-12T00:29:50.466Z,87.20
2023-01-12T00:32:20.277Z,83.20
2023-01-12T00:34:48.572Z,64.60
2023-01-12T00:37:16.581Z,51.40
2023-01-12T00:39:53.179Z,114.40
2023-01-12T00:42:43.676Z,48.70
2023-01-12T00:45:24.125Z,81.40
2023-01-12T00:47:53.627Z,32.70
2023-01-12T00:50:22.151Z,41.10
2023-01-12T00:52:50.029Z,24.20
2023-01-12T00:55:18.004Z,86.00
2023-01-12T00:57:45.870Z,47.70
2023-01-12T01:00:14.724Z,71.10
2023-01-12T01:02:42.716Z,166.50
2023-01-12T01:05:10.655Z,74.80
2023-01-12T01:07:38.653Z,52.70
2023-01-12T01:10:07.714Z,36.40
2023-01-12T01:12:35.620Z,41.80
2023-01-12T01:15:03.741Z,23.70
2023-01-12T01:17:31.744Z,20.80
2023-01-12T01:19:59.594Z,20.70
2023-01-12T01:22:27.758Z,30.10
2023-01-12T01:24:55.651Z,19.00
2023-01-12T01:27:23.474Z,19.80
2023-01-12T01:29:51.255Z,24.30
2023-01-12T01:32:19.651Z,27.50
2023-01-12T01:34:48.303Z,72.90
2023-01-12T01:37:16.912Z,210.00
2023-01-12T01:39:44.851Z,64.20
2023-01-12T01:42:28.685Z,41.80
2023-01-12T01:44:59.646Z,105.70
2023-01-12T01:47:36.610Z,48.70
2023-01-12T01:50:12.111Z,39.70
2023-01-12T01:52:44.613Z,75.60
2023-01-12T01:55:19.988Z,129.30
2023-01-12T01:57:55.117Z,79.60
2023-01-12T02:00:25.024Z,88.80
2023-01-12T02:02:55.016Z,46.80
2023-01-12T02:05:27.236Z,266.70
2023-01-12T02:07:58.877Z,102.40
2023-01-12T02:10:26.975Z,253.20
2023-01-12T02:13:13.406Z,194.30
2023-01-12T02:16:25.596Z,147.20
2023-01-12T02:19:02.531Z,256.50
2023-01-12T02:21:36.519Z,121.70
2023-01-12T02:24:26.023Z,144.60
2023-01-12T02:27:06.739Z,60.50
2023-01-12T02:29:56.470Z,135.50
2023-01-12T02:32:42.624Z,175.50
2023-01-12T02:35:35.030Z,230.40
2023-01-12T02:38:21.085Z,120.10
2023-01-12T02:41:03.168Z,143.80
2023-01-12T02:43:35.379Z,116.50
2023-01-12T02:46:32.256Z,61.20
2023-01-12T02:49:06.967Z,268.00
2023-01-12T02:51:43.178Z,93.50
2023-01-12T02:54:14.456Z,267.60
2023-01-12T02:56:49.788Z,475.10
2023-01-12T02:59:32.062Z,356.00
2023-01-12T03:02:06.290Z,456.40
2023-01-12T03:04:34.359Z,298.10
2023-01-12T03:07:02.221Z,127.90
2023-01-12T03:09:39.664Z,115.80
2023-01-12T03:12:13.945Z,79.40
2023-01-12T03:14:47.948Z,105.30
2023-01-12T03:17:28.125Z,130.90
2023-01-12T03:20:01.525Z,116.70
2023-01-12T03:22:36.255Z,256.00
2023-01-12T03:25:10.360Z,111.50
2023-01-12T03:27:42.819Z,97.90
2023-01-12T03:30:17.061Z,65.80
2023-01-12T03:32:45.384Z,86.60
2023-01-12T03:35:14.001Z,87.20
2023-01-12T03:37:55.331Z,93.50
2023-01-12T03:40:35.945Z,293.00
2023-01-12T03:43:13.549Z,157.10
2023-01-12T03:45:49.051Z,102.70
2023-01-12T03:48:27.719Z,108.40
2023-01-12T03:51:05.260Z,127.60
2023-01-12T03:53:34.370Z,113.50
2023-01-12T03:56:06.269Z,59.10
2023-01-12T03:58:35.276Z,60.10
2023-01-12T04:01:04.729Z,87.00
2023-01-12T04:03:32.839Z,73.70
2023-01-12T04:06:00.892Z,71.30
2023-01-12T04:08:28.831Z,57.50
2023-01-12T04:10:56.653Z,75.40
2023-01-12T04:13:24.592Z,54.40
2023-01-12T04:15:52.383Z,34.20
2023-01-12T04:18:20.253Z,30.90
2023-01-12T04:20:48.085Z,31.60
2023-01-12T04:23:15.963Z,36.70
2023-01-12T04:25:43.833Z,34.70
2023-01-12T04:28:11.637Z,49.60
2023-01-12T04:30:39.415Z,74.80
2023-01-12T04:33:09.298Z,39.00
2023-01-12T04:35:37.101Z,29.10
2023-01-12T04:38:06.720Z,99.40
2023-01-12T04:40:34.612Z,67.70
2023-01-12T04:43:07.355Z,73.30
2023-01-12T04:45:40.899Z,44.80
2023-01-12T04:48:12.392Z,38.90
2023-01-12T04:50:41.503Z,31.40
2023-01-12T04:53:11.495Z,22.20
2023-01-12T04:55:42.252Z,20.90
2023-01-12T04:58:10.848Z,18.90
2023-01-12T05:00:38.740Z,22.30
2023-01-12T05:03:06.552Z,20.40
2023-01-12T05:05:36.122Z,19.80
2023-01-12T05:08:24.516Z,19.60
2023-01-12T05:10:54.915Z,16.70
2023-01-12T05:13:26.040Z,14.70
2023-01-12T05:15:54.125Z,15.10
2023-01-12T05:18:23.201Z,19.10
2023-01-12T05:20:51.087Z,14.60
2023-01-12T05:23:18.985Z,17.90
2023-01-12T05:25:46.793Z,16.40
2023-01-12T05:28:14.578Z,19.00
2023-01-12T05:30:42.468Z,26.10
2023-01-12T05:33:16.491Z,19.70
2023-01-12T05:35:44.559Z,19.90
2023-01-12T05:38:12.872Z,17.80
2023-01-12T05:40:40.833Z,15.20
2023-01-12T05:43:31.568Z,18.00
2023-01-12T05:46:05.282Z,18.70
2023-01-12T05:48:33.685Z,16.50
2023-01-12T05:51:03.657Z,19.70
2023-01-12T05:53:31.823Z,21.90
2023-01-12T05:56:06.918Z,19.10
2023-01-12T05:58:35.127Z,20.00
2023-01-12T06:01:07.738Z,22.10
2023-01-12T06:03:36.771Z,22.10
2023-01-12T06:06:04.829Z,24.20
2023-01-12T06:08:32.752Z,22.90
2023-01-12T06:11:03.782Z,23.90
2023-01-12T06:13:57.888Z,32.80
2023-01-12T06:16:27.777Z,25.90
2023-01-12T06:18:56.622Z,52.60
2023-01-12T06:21:25.560Z,39.10
2023-01-12T06:23:53.385Z,32.90
2023-01-12T06:26:21.138Z,41.20
2023-01-12T06:28:49.023Z,38.70
2023-01-12T06:31:17.100Z,44.70
2023-01-12T06:33:44.992Z,49.10
2023-01-12T06:36:12.919Z,35.60
2023-01-12T06:38:42.813Z,32.30
2023-01-12T06:41:32.863Z,23.20
2023-01-12T06:44:00.763Z,38.20
2023-01-12T06:46:29.221Z,23.70
2023-01-12T06:48:58.593Z,30.30
2023-01-12T06:51:27.053Z,36.50
2023-01-12T06:53:55.111Z,36.90
2023-01-12T06:56:23.246Z,27.40
2023-01-12T06:58:51.064Z,33.50
2023-01-12T07:01:18.946Z,27.60
2023-01-12T07:03:46.847Z,23.10
2023-01-12T07:06:14.775Z,30.10
2023-01-12T07:08:43.459Z,35.00
2023-01-12T07:11:16.855Z,34.60
2023-01-12T07:13:44.644Z,36.40
2023-01-12T07:16:13.033Z,29.90
2023-01-12T07:18:40.878Z,26.10
2023-01-12T07:21:13.653Z,25.00
2023-01-12T07:23:44.180Z,19.90
2023-01-12T07:26:12.437Z,21.20
2023-01-12T07:28:41.116Z,23.00
2023-01-12T07:31:09.370Z,18.70
2023-01-12T07:33:38.636Z,20.60
2023-01-12T07:36:06.923Z,20.10
2023-01-12T07:38:35.071Z,15.40
2023-01-12T07:41:03.959Z,21.30
2023-01-12T07:43:33.787Z,17.90
2023-01-12T07:46:01.828Z,19.00
2023-01-12T07:48:30.871Z,18.10
2023-01-12T07:50:59.487Z,28.60
2023-01-12T07:53:27.269Z,24.50
2023-01-12T07:55:55.078Z,31.90
2023-01-12T07:58:22.928Z,23.30
2023-01-12T08:00:50.878Z,16.10
2023-01-12T08:03:18.911Z,15.60
2023-01-12T08:05:46.771Z,20.70
2023-01-12T08:08:14.643Z,18.20
2023-01-12T08:10:43.751Z,17.30
2023-01-12T08:13:11.793Z,15.00
2023-01-12T08:15:44.166Z,12.40
2023-01-12T08:18:25.485Z,14.70
2023-01-12T08:20:56.929Z,12.40
2023-01-12T08:23:29.984Z,10.90
2023-01-12T08:26:01.333Z,10.90
2023-01-12T08:28:36.908Z,10.50
2023-01-12T08:31:10.074Z,15.60
2023-01-12T08:33:38.673Z,13.90
2023-01-12T08:36:09.653Z,13.00
2023-01-12T08:38:37.839Z,10.40
2023-01-12T08:41:24.991Z,13.10
2023-01-12T08:44:02.093Z,80.70
2023-01-12T08:46:31.428Z,227.10
2023-01-12T08:48:59.577Z,156.00
2023-01-12T08:51:28.181Z,235.90
2023-01-12T08:53:56.565Z,216.50
2023-01-12T08:56:24.474Z,219.60
2023-01-12T08:58:52.386Z,87.60
2023-01-12T09:01:20.833Z,36.20
2023-01-12T09:03:49.406Z,36.90
2023-01-12T09:06:26.254Z,32.40
2023-01-12T09:08:59.931Z,62.60
2023-01-12T09:11:29.570Z,48.60
2023-01-12T09:13:58.826Z,23.10
2023-01-12T09:16:29.557Z,37.20
2023-01-12T09:18:57.895Z,34.20
2023-01-12T09:21:27.781Z,31.70
2023-01-12T09:23:55.978Z,33.10
2023-01-12T09:26:32.044Z,17.70
2023-01-12T09:29:01.568Z,26.60
2023-01-12T09:31:31.353Z,21.90
2023-01-12T09:33:59.765Z,26.70
2023-01-12T09:36:33.683Z,29.00
2023-01-12T09:39:02.204Z,19.20
2023-01-12T09:41:59.718Z,13.00
2023-01-12T09:45:01.534Z,22.00
2023-01-12T09:47:47.637Z,27.00
2023-01-12T09:50:25.342Z,32.50
2023-01-12T09:53:00.064Z,24.40
2023-01-12T09:55:35.068Z,29.80
2023-01-12T09:58:25.974Z,36.30
2023-01-12T10:00:58.500Z,24.20
2023-01-12T10:03:38.446Z,48.10
2023-01-12T10:06:09.004Z,57.50
2023-01-12T10:08:41.316Z,145.20
2023-01-12T10:11:33.558Z,111.20
2023-01-12T10:14:35.921Z,106.40
2023-01-12T10:17:12.647Z,134.90
2023-01-12T10:20:09.452Z,59.70
2023-01-12T10:22:44.823Z,130.60
2023-01-12T10:25:21.946Z,58.80
2023-01-12T10:27:52.260Z,64.10
2023-01-12T10:30:24.888Z,39.50
2023-01-12T10:32:52.814Z,35.90
2023-01-12T10:35:23.222Z,42.80
2023-01-12T10:37:56.488Z,46.50
2023-01-12T10:40:27.207Z,37.20
2023-01-12T10:43:20.562Z,54.50
2023-01-12T10:45:54.758Z,52.00
2023-01-12T10:48:23.577Z,51.00
2023-01-12T10:51:03.878Z,29.10
2023-01-12T10:53:44.057Z,35.60
2023-01-12T10:56:20.792Z,45.00
2023-01-12T10:58:54.931Z,38.40
2023-01-12T11:01:23.778Z,45.80
2023-01-12T11:03:52.103Z,50.40
2023-01-12T11:06:28.552Z,38.70
2023-01-12T11:08:57.264Z,33.50
2023-01-12T11:11:30.976Z,75.30
2023-01-12T11:14:01.514Z,37.10
2023-01-12T11:16:34.026Z,21.50
2023-01-12T11:19:18.804Z,31.20
2023-01-12T11:21:56.252Z,36.90
2023-01-12T11:24:42.044Z,35.50
2023-01-12T11:30:00.555Z,37.70
2023-01-12T11:32:47.962Z,23.60
2023-01-12T11:35:40.697Z,37.30
2023-01-12T11:38:17.302Z,30.70
2023-01-12T11:40:45.942Z,53.10
2023-01-12T11:43:55.708Z,35.20
2023-01-12T11:46:54.240Z,29.40
2023-01-12T11:49:41.907Z,35.00
2023-01-12T11:52:11.597Z,49.00
2023-01-12T11:54:40.496Z,42.30
2023-01-12T11:57:27.025Z,35.60
2023-01-12T11:59:54.835Z,40.40
2023-01-12T12:02:38.467Z,39.90
2023-01-12T12:05:42.245Z,43.70
2023-01-12T12:08:43.747Z,62.90
2023-01-12T12:11:32.997Z,49.20
2023-01-12T12:14:23.860Z,259.70
2023-01-12T12:17:19.240Z,205.80
2023-01-12T12:22:59.812Z,64.90
2023-01-12T12:25:44.826Z,94.00
2023-01-12T12:28:33.871Z,91.40
2023-01-12T12:31:39.699Z,148.70
2023-01-12T12:34:31.479Z,182.30
2023-01-12T12:37:14.437Z,121.00
2023-01-12T12:39:42.230Z,99.80
2023-01-12T12:43:13.893Z,81.00
2023-01-12T12:45:50.498Z,40.40
2023-01-12T12:48:27.728Z,74.10
2023-01-12T12:51:03.364Z,90.80
2023-01-12T12:53:51.381Z,77.00
2023-01-12T12:56:22.483Z,69.00
2023-01-12T12:58:55.883Z,119.40
2023-01-12T13:01:29.554Z,143.00
2023-01-12T13:03:58.778Z,83.60
2023-01-12T13:06:36.034Z,44.50
2023-01-12T13:09:12.801Z,49.40
2023-01-12T13:11:54.249Z,80.40
2023-01-12T13:14:33.994Z,130.10
2023-01-12T13:17:01.769Z,179.40
2023-01-12T13:19:42.435Z,127.20
2023-01-12T13:22:28.955Z,101.90
2023-01-12T13:24:58.519Z,43.30
2023-01-12T13:28:05.795Z,64.90
2023-01-12T13:30:35.041Z,149.50
2023-01-12T13:33:14.923Z,40.70
2023-01-12T13:35:49.498Z,22.40
2023-01-12T13:38:49.222Z,29.90
2023-01-12T13:41:46.538Z,25.50
2023-01-12T13:44:24.504Z,43.40
2023-01-12T13:47:00.200Z,32.00
2023-01-12T13:49:30.124Z,35.10
2023-01-12T13:52:04.434Z,56.30
2023-01-12T13:54:33.901Z,43.90
2023-01-12T13:57:06.422Z,38.80
2023-01-12T13:59:35.278Z,33.30
2023-01-12T14:02:04.024Z,33.10
2023-01-12T14:04:38.587Z,45.90
2023-01-12T14:07:28.164Z,54.30
2023-01-12T14:10:25.109Z,143.70
2023-01-12T14:13:22.979Z,80.50
2023-01-12T14:16:19.329Z,51.70
2023-01-12T14:18:49.585Z,65.90
2023-01-12T14:21:37.650Z,52.30
2023-01-12T14:24:15.935Z,49.60
2023-01-12T14:26:44.124Z,45.50
2023-01-12T14:29:13.020Z,43.60
2023-01-12T14:31:48.647Z,30.90
2023-01-12T14:34:37.431Z,50.00
2023-01-12T14:37:19.258Z,62.10
2023-01-12T14:39:47.620Z,69.90
2023-01-12T14:42:38.459Z,75.70
2023-01-12T14:45:42.194Z,54.40
2023-01-12T14:48:20.323Z,37.90
2023-01-12T14:51:10.051Z,61.80
2023-01-12T14:53:42.774Z,28.00
2023-01-12T14:56:22.634Z,54.90
2023-01-12T14:58:50.916Z,76.50
2023-01-12T15:01:37.285Z,116.60
2023-01-12T15:04:13.330Z,78.70
2023-01-12T15:09:44.582Z,54.50
2023-01-12T15:12:26.216Z,52.20
2023-01-12T15:14:54.189Z,49.00
2023-01-12T15:17:40.517Z,57.40
2023-01-12T15:20:31.547Z,40.10
2023-01-12T15:23:18.011Z,28.70
2023-01-12T15:25:45.850Z,48.90
2023-01-12T15:28:13.702Z,55.80
2023-01-12T15:30:41.584Z,41.60
2023-01-12T15:33:09.482Z,47.30
2023-01-12T15:35:43.501Z,64.30
2023-01-12T15:38:18.963Z,73.00
2023-01-12T15:40:48.135Z,37.90
2023-01-12T15:43:17.685Z,52.40
2023-01-12T15:45:47.506Z,68.70
2023-01-12T15:48:15.380Z,38.90
2023-01-12T15:50:45.629Z,65.60
2023-01-12T15:53:16.418Z,75.60
2023-01-12T15:55:44.739Z,69.90
2023-01-12T15:58:12.826Z,38.20
2023-01-12T16:00:43.012Z,60.40
2023-01-12T16:03:28.908Z,39.30
2023-01-12T16:06:00.830Z,38.10
2023-01-12T16:08:28.670Z,49.90
2023-01-12T16:11:13.688Z,36.90
2023-01-12T16:13:41.688Z,44.30
2023-01-12T16:16:15.985Z,44.50
2023-01-12T16:18:44.861Z,40.90
2023-01-12T16:21:16.116Z,43.00
2023-01-12T16:23:44.033Z,63.70
2023-01-12T16:26:12.458Z,37.40
2023-01-12T16:28:40.364Z,47.60
2023-01-12T16:31:10.926Z,100.00
2023-01-12T16:33:40.641Z,60.70
2023-01-12T16:36:09.693Z,50.60
2023-01-12T16:38:37.849Z,55.90
2023-01-12T16:41:19.942Z,50.30
2023-01-12T16:43:48.935Z,70.40
2023-01-12T16:46:17.497Z,43.60
2023-01-12T16:48:45.671Z,56.70
2023-01-12T16:51:18.597Z,59.80
2023-01-12T16:53:47.437Z,46.70
2023-01-12T16:56:16.629Z,64.70
2023-01-12T16:58:53.309Z,63.10
2023-01-12T17:01:24.824Z,89.20
2023-01-12T17:03:57.922Z,42.80
2023-01-12T17:06:28.669Z,69.80
2023-01-12T17:08:56.814Z,42.80
2023-01-12T17:11:26.065Z,39.60
2023-01-12T17:13:56.317Z,40.80
2023-01-12T17:16:27.404Z,39.20
2023-01-12T17:18:55.331Z,58.40
2023-01-12T17:21:24.534Z,49.70
2023-01-12T17:23:53.039Z,58.60
2023-01-12T17:26:20.894Z,41.90
2023-01-12T17:28:48.887Z,59.30
2023-01-12T17:31:18.770Z,75.40
2023-01-12T17:33:46.984Z,115.20
2023-01-12T17:36:14.909Z,93.50
2023-01-12T17:38:42.991Z,62.90
2023-01-12T17:41:32.676Z,157.10
2023-01-12T17:44:03.400Z,104.70
2023-01-12T17:46:32.574Z,97.40
2023-01-12T17:49:02.203Z,322.00
2023-01-12T17:51:30.393Z,719.50
2023-01-12T17:53:59.891Z,733.80
2023-01-12T17:56:31.581Z,731.30
2023-01-12T17:59:00.181Z,565.70
2023-01-12T18:01:31.298Z,1025.50
2023-01-12T18:04:00.499Z,441.80
2023-01-12T18:06:28.819Z,332.50
2023-01-12T18:08:59.616Z,388.70
2023-01-12T18:11:29.069Z,347.10
2023-01-12T18:13:58.033Z,658.10
2023-01-12T18:16:27.120Z,303.00
2023-01-12T18:18:55.384Z,323.40
2023-01-12T18:21:26.109Z,185.90
2023-01-12T18:23:56.324Z,214.60
2023-01-12T18:26:27.867Z,269.30
2023-01-12T18:28:57.255Z,218.00
2023-01-12T18:31:28.803Z,257.40
2023-01-12T18:34:10.772Z,239.70
2023-01-12T18:36:41.412Z,146.40
2023-01-12T18:39:14.163Z,97.60
2023-01-12T18:42:00.743Z,82.70
2023-01-12T18:44:28.760Z,47.50
2023-01-12T18:47:16.857Z,84.30
2023-01-12T18:49:49.040Z,74.00
2023-01-12T18:52:37.134Z,47.00
2023-01-12T18:55:05.812Z,52.30
2023-01-12T18:57:34.765Z,62.80
2023-01-12T19:00:16.209Z,130.30
2023-01-12T19:02:45.087Z,50.60
2023-01-12T19:05:18.284Z,45.80
2023-01-12T19:07:58.535Z,25.90
2023-01-12T19:10:28.477Z,24.60
2023-01-12T19:13:16.120Z,22.30
2023-01-12T19:16:02.848Z,28.40
2023-01-12T19:18:30.809Z,22.80
2023-01-12T19:21:21.475Z,27.20
2023-01-12T19:24:08.200Z,23.70
2023-01-12T19:26:54.975Z,26.40
2023-01-12T19:29:22.782Z,39.80
2023-01-12T19:31:50.572Z,31.60
2023-01-12T19:34:18.899Z,35.60
2023-01-12T19:36:46.867Z,54.30
2023-01-12T19:39:15.473Z,28.80
2023-01-12T19:42:01.912Z,44.50
2023-01-12T19:44:29.995Z,86.60
2023-01-12T19:46:57.758Z,205.40
2023-01-12T19:49:25.781Z,132.10
2023-01-12T19:51:53.742Z,149.50
2023-01-12T19:54:21.565Z,129.50
2023-01-12T19:56:49.494Z,145.40
2023-01-12T19:59:17.364Z,137.30
2023-01-12T20:01:45.420Z,53.50
2023-01-12T20:04:13.435Z,48.40
2023-01-12T20:06:41.460Z,62.60
2023-01-12T20:09:09.313Z,49.50
2023-01-12T20:11:37.135Z,113.30
2023-01-12T20:14:05.318Z,53.60
2023-01-12T20:16:33.651Z,67.00
2023-01-12T20:19:03.938Z,142.90
2023-01-12T20:21:31.695Z,84.60
2023-01-12T20:23:59.635Z,61.60
2023-01-12T20:26:27.782Z,63.30
2023-01-12T20:28:55.590Z,51.10
2023-01-12T20:31:23.535Z,66.10
2023-01-12T20:33:51.471Z,41.70
2023-01-12T20:36:19.422Z,65.40
2023-01-12T20:38:47.698Z,51.20
2023-01-12T20:41:15.563Z,50.10
2023-01-12T20:43:43.480Z,51.50
2023-01-12T20:46:14.124Z,80.10
2023-01-12T20:48:42.928Z,65.40
2023-01-12T20:51:14.415Z,120.60
2023-01-12T20:53:42.972Z,85.50
2023-01-12T20:56:11.026Z,47.80
2023-01-12T20:58:38.846Z,54.30
2023-01-12T21:01:12.277Z,36.40
2023-01-12T21:03:40.294Z,27.70
2023-01-12T21:06:10.608Z,22.20
2023-01-12T21:08:39.375Z,24.50
2023-01-12T21:11:07.216Z,29.80
2023-01-12T21:13:35.167Z,35.90
2023-01-12T21:16:06.967Z,26.90
2023-01-12T21:18:35.052Z,26.00
2023-01-12T21:21:03.033Z,33.20
2023-01-12T21:23:30.953Z,39.30
2023-01-12T21:25:59.512Z,39.30
2023-01-12T21:28:30.182Z,45.40
2023-01-12T21:31:03.207Z,21.50
2023-01-12T21:33:31.165Z,24.50
2023-01-12T21:35:59.914Z,24.50
2023-01-12T21:38:27.755Z,24.40
2023-01-12T21:41:01.424Z,21.30
2023-01-12T21:43:29.412Z,36.30
2023-01-12T21:46:04.763Z,28.30
2023-01-12T21:48:32.813Z,20.20
2023-01-12T21:51:02.562Z,17.60
2023-01-12T21:53:30.450Z,19.60
2023-01-12T21:56:01.355Z,37.10
2023-01-12T21:58:31.302Z,15.20
2023-01-12T22:00:59.896Z,17.70
2023-01-12T22:03:29.080Z,26.60
2023-01-12T22:06:05.130Z,37.80
2023-01-12T22:11:10.381Z,43.00
2023-01-12T22:13:38.815Z,35.10
2023-01-12T22:16:09.688Z,22.70
2023-01-12T22:18:39.085Z,22.30
2023-01-12T22:21:09.431Z,38.70
2023-01-12T22:23:37.772Z,35.60
2023-01-12T22:26:08.963Z,22.70
2023-01-12T22:28:39.692Z,15.80
2023-01-12T22:31:12.230Z,16.70
2023-01-12T22:33:43.284Z,17.60
2023-01-12T22:36:11.223Z,17.60
2023-01-12T22:38:39.161Z,19.90
2023-01-12T22:41:08.573Z,34.00
2023-01-12T22:43:42.916Z,18.70
2023-01-12T22:46:20.369Z,13.50
2023-01-12T22:48:53.736Z,16.10
2023-01-12T22:51:24.960Z,17.90
2023-01-12T22:53:54.028Z,20.20
2023-01-12T22:56:21.899Z,16.70
2023-01-12T22:58:52.904Z,16.50
2023-01-12T23:01:22.751Z,17.60
2023-01-12T23:03:58.661Z,13.40
2023-01-12T23:06:27.248Z,15.10
2023-01-12T23:08:55.427Z,13.90
2023-01-12T23:11:26.460Z,16.50
2023-01-12T23:13:55.078Z,58.00
2023-01-12T23:16:23.471Z,47.00
2023-01-12T23:18:52.024Z,37.70
2023-01-12T23:21:26.454Z,12.80
2023-01-12T23:23:59.797Z,27.40
2023-01-12T23:26:31.404Z,18.50
2023-01-12T23:29:01.178Z,28.10
2023-01-12T23:31:32.349Z,19.50
2023-01-12T23:34:01.386Z,13.30
2023-01-12T23:36:30.259Z,12.80
2023-01-12T23:39:00.987Z,12.90
2023-01-12T23:41:31.071Z,14.40
2023-01-12T23:44:00.716Z,12.90
2023-01-12T23:46:31.195Z,12.70
2023-01-12T23:48:59.395Z,14.30
2023-01-12T23:51:29.434Z,10.30
2023-01-12T23:54:00.132Z,13.80
2023-01-12T23:56:30.491Z,16.90
2023-01-12T23:58:58.439Z,12.80
